Time;durP1;ratioP1;P1;durP2;ratioP2;P2;SDS_P1;SDS_P2;PMS_P1;PMS_P2;Temp;Humidity;BMP_temperature;BMP_pressure;BME280_temperature;BME280_humidity;BME280_pressure;Samples;Min_cycle;Max_cycle;Signal;HPM_P1;HPM_P2
2023/07/04 00:01:09;;;;;;;13.03;6.60;;;17.90;98.70;;;;;;5038296;28;20227;-80
2023/07/04 00:03:38;;;;;;;18.10;6.53;;;17.90;98.80;;;;;;5054378;28;20510;-79
2023/07/04 00:06:07;;;;;;;17.20;6.43;;;17.80;98.80;;;;;;5055501;28;20264;-80
2023/07/04 00:08:34;;;;;;;12.00;6.50;;;17.80;99.00;;;;;;5054536;28;20195;-81
2023/07/04 00:11:03;;;;;;;13.57;6.40;;;17.80;99.10;;;;;;5054265;28;20257;-80
2023/07/04 00:13:31;;;;;;;16.03;6.67;;;17.80;99.50;;;;;;5054266;28;20194;-80
2023/07/04 00:15:59;;;;;;;15.93;6.40;;;17.80;99.40;;;;;;5054189;28;20250;-80
2023/07/04 00:18:28;;;;;;;14.80;6.53;;;17.80;99.40;;;;;;5037294;28;20191;-79
2023/07/04 00:20:57;;;;;;;16.43;6.60;;;17.80;99.30;;;;;;5037358;28;20253;-79
2023/07/04 00:23:29;;;;;;;13.97;6.60;;;17.80;99.20;;;;;;5053913;28;20240;-80
2023/07/04 00:25:57;;;;;;;15.90;6.50;;;17.80;99.30;;;;;;5055116;28;20240;-79
2023/07/04 00:28:24;;;;;;;16.10;7.20;;;17.80;99.30;;;;;;5053678;28;20647;-79
2023/07/04 00:30:54;;;;;;;15.83;6.17;;;17.90;99.80;;;;;;5053566;28;20250;-79
2023/07/04 00:33:23;;;;;;;15.27;6.80;;;17.80;99.60;;;;;;5053914;28;20210;-78
2023/07/04 00:36:00;;;;;;;16.23;7.00;;;17.80;99.70;;;;;;5054029;28;20313;-78
2023/07/04 00:38:27;;;;;;;17.43;6.93;;;17.80;99.90;;;;;;5055093;28;20270;-79
2023/07/04 00:40:54;;;;;;;16.53;7.30;;;17.90;99.80;;;;;;5053382;28;20748;-78
2023/07/04 00:43:22;;;;;;;16.43;7.20;;;17.90;99.70;;;;;;5053412;28;20245;-77
2023/07/04 00:45:56;;;;;;;12.80;6.67;;;17.90;99.90;;;;;;5053616;28;20242;-78
2023/07/04 00:48:23;;;;;;;17.03;6.93;;;17.80;99.90;;;;;;5053579;28;20329;-77
2023/07/04 00:50:57;;;;;;;16.97;6.87;;;17.70;99.90;;;;;;5054733;28;20606;-77
2023/07/04 00:53:24;;;;;;;15.23;7.27;;;17.80;99.90;;;;;;5036990;28;20199;-78
2023/07/04 00:55:51;;;;;;;13.90;6.77;;;17.80;99.90;;;;;;5053494;28;20756;-78
2023/07/04 00:58:18;;;;;;;15.23;7.37;;;17.80;99.90;;;;;;5053836;28;20294;-78
2023/07/04 01:00:45;;;;;;;17.17;7.13;;;17.80;99.90;;;;;;5053116;28;20560;-78
2023/07/04 01:03:20;;;;;;;15.23;6.60;;;17.90;99.90;;;;;;5054388;28;20191;-78
2023/07/04 01:05:50;;;;;;;18.17;7.33;;;17.80;99.90;;;;;;5053066;28;20629;-79
2023/07/04 01:08:27;;;;;;;14.93;7.27;;;17.80;99.90;;;;;;5052954;28;20237;-78
2023/07/04 01:10:55;;;;;;;13.67;6.80;;;17.80;99.90;;;;;;5036625;28;20226;-79
2023/07/04 01:13:36;;;;;;;16.17;7.10;;;17.80;99.90;;;;;;5052793;28;20199;-78
2023/07/04 01:16:05;;;;;;;13.37;6.63;;;17.80;99.90;;;;;;5054129;28;20358;-78
2023/07/04 01:18:33;;;;;;;15.13;6.70;;;17.80;99.90;;;;;;5052564;28;20191;-79
2023/07/04 01:21:01;;;;;;;15.40;6.70;;;17.80;99.90;;;;;;5052517;28;20222;-79
2023/07/04 01:23:47;;;;;;;15.80;7.10;;;17.80;99.90;;;;;;5052475;28;20199;-79
2023/07/04 01:26:32;;;;;;;16.63;7.10;;;17.80;99.90;;;;;;5052210;28;20254;-79
2023/07/04 01:29:02;;;;;;;16.03;6.43;;;17.80;99.90;;;;;;5053539;28;20297;-79
2023/07/04 01:31:30;;;;;;;16.37;7.13;;;17.70;99.90;;;;;;5051986;28;20294;-79
2023/07/04 01:33:58;;;;;;;14.17;6.87;;;17.70;99.90;;;;;;5053403;28;20189;-78
2023/07/04 01:36:30;;;;;;;17.00;7.27;;;17.70;99.90;;;;;;5035741;28;20280;-78
2023/07/04 01:38:57;;;;;;;18.53;6.93;;;17.70;99.90;;;;;;5052283;28;20195;-78
2023/07/04 01:41:24;;;;;;;13.63;6.97;;;17.70;99.90;;;;;;5035700;28;20314;-76
2023/07/04 01:44:05;;;;;;;14.43;6.93;;;17.60;99.90;;;;;;5053513;28;20195;-77
2023/07/04 01:46:34;;;;;;;16.43;6.77;;;17.60;99.90;;;;;;5035165;28;20330;-77
2023/07/04 01:49:02;;;;;;;15.73;7.17;;;17.60;99.90;;;;;;5035726;28;20650;-76
2023/07/04 01:51:37;;;;;;;17.43;7.17;;;17.60;99.90;;;;;;5053060;28;20251;-77
2023/07/04 01:54:05;;;;;;;15.57;6.63;;;17.50;99.90;;;;;;5051435;28;20661;-76
2023/07/04 01:56:34;;;;;;;18.70;7.17;;;17.50;99.90;;;;;;5035370;28;20269;-78
2023/07/04 01:59:01;;;;;;;17.23;7.53;;;17.50;99.90;;;;;;5051666;28;20634;-79
2023/07/04 02:01:28;;;;;;;13.90;7.40;;;17.50;99.90;;;;;;5051608;28;20223;-78
2023/07/04 02:03:55;;;;;;;16.37;7.03;;;17.40;99.90;;;;;;5052922;28;20227;-79
2023/07/04 02:06:22;;;;;;;19.40;7.97;;;17.40;99.90;;;;;;5035606;28;20702;-78
2023/07/04 02:08:49;;;;;;;15.70;6.53;;;17.40;99.90;;;;;;5051634;28;20690;-78
2023/07/04 02:11:16;;;;;;;13.03;6.60;;;17.40;99.90;;;;;;5051416;28;20603;-79
2023/07/04 02:13:43;;;;;;;16.73;7.40;;;17.40;99.90;;;;;;5051873;28;20536;-78
2023/07/04 02:16:10;;;;;;;14.97;7.40;;;17.40;99.90;;;;;;5051399;28;20219;-78
2023/07/04 02:18:37;;;;;;;16.33;6.90;;;17.40;99.90;;;;;;5035221;28;20202;-79
2023/07/04 02:21:05;;;;;;;12.33;6.70;;;17.30;99.90;;;;;;5051385;28;20217;-78
2023/07/04 02:23:33;;;;;;;15.90;6.97;;;17.40;99.90;;;;;;5034758;28;20195;-79
2023/07/04 02:25:59;;;;;;;14.50;6.97;;;17.40;99.90;;;;;;5052416;28;20235;-78
2023/07/04 02:28:26;;;;;;;12.23;7.10;;;17.40;99.90;;;;;;5051390;28;20201;-78
2023/07/04 02:30:55;;;;;;;13.03;6.60;;;17.40;99.90;;;;;;5051281;28;20303;-79
2023/07/04 02:33:23;;;;;;;14.03;6.77;;;17.40;99.90;;;;;;5051151;28;20310;-78
2023/07/04 02:35:51;;;;;;;14.53;6.23;;;17.30;99.90;;;;;;5052685;28;20629;-78
2023/07/04 02:38:18;;;;;;;14.80;6.90;;;17.40;99.90;;;;;;5051035;28;20276;-77
2023/07/04 02:40:47;;;;;;;17.27;7.07;;;17.30;99.90;;;;;;5034501;28;20253;-78
2023/07/04 02:43:15;;;;;;;14.63;6.83;;;17.40;99.90;;;;;;5051080;28;20233;-79
2023/07/04 02:45:43;;;;;;;15.20;6.70;;;17.40;99.90;;;;;;5034756;28;20251;-78
2023/07/04 02:48:10;;;;;;;16.37;6.57;;;17.40;99.90;;;;;;5051111;28;20272;-79
2023/07/04 02:50:37;;;;;;;11.53;6.53;;;17.40;99.90;;;;;;5050980;28;20305;-79
2023/07/04 02:53:04;;;;;;;13.37;6.50;;;17.30;99.90;;;;;;5052423;28;20655;-77
2023/07/04 02:55:31;;;;;;;17.23;6.67;;;17.30;99.90;;;;;;5051029;28;20305;-78
2023/07/04 02:57:58;;;;;;;15.83;6.80;;;17.40;99.90;;;;;;5051345;28;20597;-78
2023/07/04 03:00:25;;;;;;;14.93;6.43;;;17.40;99.90;;;;;;5050896;28;20219;-78
2023/07/04 03:02:52;;;;;;;15.00;6.83;;;17.40;99.90;;;;;;5051063;28;20268;-78
2023/07/04 03:05:21;;;;;;;13.87;6.30;;;17.40;99.90;;;;;;5038572;28;20231;-79
2023/07/04 03:07:48;;;;;;;13.07;6.03;;;17.40;99.90;;;;;;5056469;28;20195;-78
2023/07/04 03:10:15;;;;;;;13.53;6.30;;;17.40;99.90;;;;;;5056253;28;20209;-78
2023/07/04 03:12:42;;;;;;;14.50;6.50;;;17.30;99.90;;;;;;5054781;28;20242;-79
2023/07/04 03:15:10;;;;;;;19.00;6.80;;;17.30;99.90;;;;;;5054764;28;20642;-78
2023/07/04 03:17:38;;;;;;;12.17;6.03;;;17.30;99.90;;;;;;5056207;28;20248;-79
2023/07/04 03:20:09;;;;;;;13.30;6.50;;;17.30;99.90;;;;;;5055062;28;20198;-78
2023/07/04 03:22:37;;;;;;;14.97;6.67;;;17.40;99.90;;;;;;5056346;28;20178;-78
2023/07/04 03:25:04;;;;;;;11.23;6.00;;;17.40;99.90;;;;;;5038671;28;20790;-78
2023/07/04 03:27:33;;;;;;;14.90;6.50;;;17.40;99.90;;;;;;5038467;28;20199;-79
2023/07/04 03:30:00;;;;;;;14.07;6.40;;;17.40;99.90;;;;;;5055062;28;20197;-78
2023/07/04 03:32:27;;;;;;;14.63;6.40;;;17.40;99.90;;;;;;5055123;28;20218;-78
2023/07/04 03:34:55;;;;;;;14.90;6.30;;;17.40;99.90;;;;;;5038465;28;20191;-79
2023/07/04 03:37:22;;;;;;;11.70;6.20;;;17.40;99.90;;;;;;5038451;28;20294;-78
2023/07/04 03:39:49;;;;;;;15.13;6.47;;;17.50;99.90;;;;;;5056136;28;20192;-78
2023/07/04 03:42:16;;;;;;;12.70;5.77;;;17.50;99.90;;;;;;5038589;28;20576;-78
2023/07/04 03:44:43;;;;;;;15.43;6.33;;;17.50;99.90;;;;;;5054693;28;20433;-79
2023/07/04 03:47:10;;;;;;;16.70;6.67;;;17.50;99.90;;;;;;5038088;28;20269;-78
2023/07/04 03:49:37;;;;;;;16.07;6.80;;;17.50;99.90;;;;;;5038324;28;20195;-77
2023/07/04 03:52:04;;;;;;;14.63;6.63;;;17.60;99.90;;;;;;5055825;28;20218;-79
2023/07/04 03:54:31;;;;;;;14.27;6.50;;;17.50;99.90;;;;;;5054684;28;20206;-79
2023/07/04 03:56:58;;;;;;;16.13;6.70;;;17.50;99.90;;;;;;5054780;28;20321;-79
2023/07/04 03:59:25;;;;;;;15.07;6.40;;;17.50;99.90;;;;;;5054394;28;20233;-78
2023/07/04 04:01:52;;;;;;;15.23;6.30;;;17.60;99.90;;;;;;5053924;28;20211;-78
2023/07/04 04:04:20;;;;;;;12.83;6.33;;;17.60;99.90;;;;;;5054004;28;20206;-78
2023/07/04 04:06:54;;;;;;;17.70;6.77;;;17.60;99.90;;;;;;5037488;28;20234;-79
2023/07/04 04:09:24;;;;;;;13.77;6.53;;;17.70;99.90;;;;;;5054358;28;20186;-79
2023/07/04 04:11:51;;;;;;;14.17;6.33;;;17.70;99.90;;;;;;5053576;28;20238;-78
2023/07/04 04:14:18;;;;;;;15.57;6.80;;;17.70;99.90;;;;;;5055086;28;20187;-79
2023/07/04 04:16:45;;;;;;;11.37;5.83;;;17.80;99.90;;;;;;5036458;28;20709;-79
2023/07/04 04:19:12;;;;;;;15.47;6.90;;;17.90;99.90;;;;;;5054009;28;20195;-78
2023/07/04 04:21:39;;;;;;;16.13;6.87;;;17.90;99.90;;;;;;5053844;28;20218;-79
2023/07/04 04:24:06;;;;;;;16.90;6.57;;;18.00;99.90;;;;;;5053464;28;20199;-78
2023/07/04 04:26:38;;;;;;;11.37;6.27;;;18.00;99.90;;;;;;5037006;28;20211;-79
2023/07/04 04:29:06;;;;;;;17.73;6.13;;;18.10;99.90;;;;;;5053469;28;20201;-79
2023/07/04 04:31:37;;;;;;;13.70;6.43;;;18.10;99.90;;;;;;5054618;28;20663;-78
2023/07/04 04:34:05;;;;;;;14.60;6.60;;;18.20;99.90;;;;;;5053337;28;20203;-78
2023/07/04 04:36:33;;;;;;;13.37;6.30;;;18.20;99.90;;;;;;5053211;28;20246;-78
2023/07/04 04:39:01;;;;;;;13.67;6.23;;;18.30;99.90;;;;;;5053135;28;20332;-78
2023/07/04 04:41:28;;;;;;;14.00;6.57;;;18.40;99.90;;;;;;5036718;28;20238;-78
2023/07/04 04:43:57;;;;;;;11.90;6.67;;;18.50;99.90;;;;;;5054389;28;20593;-78
2023/07/04 04:46:24;;;;;;;13.57;6.07;;;18.50;99.90;;;;;;5036604;28;20268;-78
2023/07/04 04:48:51;;;;;;;14.67;6.50;;;18.60;99.90;;;;;;5054408;28;20275;-79
2023/07/04 04:51:18;;;;;;;17.20;6.23;;;18.60;99.90;;;;;;5053318;28;20242;-78
2023/07/04 04:53:48;;;;;;;15.90;6.60;;;18.80;99.90;;;;;;5054349;28;20276;-77
2023/07/04 04:56:15;;;;;;;13.90;5.97;;;18.80;99.90;;;;;;5020555;28;20699;-78
2023/07/04 04:58:45;;;;;;;14.40;6.07;;;19.00;99.90;;;;;;5053071;28;20728;-77
2023/07/04 05:01:21;;;;;;;13.57;6.17;;;19.00;99.90;;;;;;5054405;28;20714;-77
2023/07/04 05:03:53;;;;;;;12.37;6.00;;;19.10;99.90;;;;;;5053465;28;20191;-77
2023/07/04 05:06:25;;;;;;;13.40;5.70;;;19.10;99.90;;;;;;5052994;28;20225;-78
2023/07/04 05:08:52;;;;;;;15.53;6.00;;;19.30;99.90;;;;;;5054466;28;20191;-79
2023/07/04 05:11:19;;;;;;;17.70;6.20;;;19.30;99.90;;;;;;5054181;28;20682;-79
2023/07/04 05:13:48;;;;;;;15.37;6.03;;;19.40;99.90;;;;;;5052649;28;20250;-78
2023/07/04 05:16:18;;;;;;;12.87;5.87;;;19.50;99.90;;;;;;5053804;28;20210;-79
2023/07/04 05:18:46;;;;;;;16.13;5.60;;;19.50;99.90;;;;;;5053977;28;20187;-78
2023/07/04 05:21:16;;;;;;;18.63;5.27;;;19.70;99.90;;;;;;5053844;28;20214;-77
2023/07/04 05:23:46;;;;;;;10.00;5.27;;;19.70;99.90;;;;;;5036220;28;20231;-76
2023/07/04 05:26:19;;;;;;;11.83;5.13;;;19.90;99.90;;;;;;5052194;28;20265;-77
2023/07/04 05:28:46;;;;;;;11.30;5.50;;;19.90;99.90;;;;;;5051734;28;20671;-79
2023/07/04 05:31:18;;;;;;;12.93;5.30;;;20.10;99.90;;;;;;5053565;28;20272;-78
2023/07/04 05:33:45;;;;;;;11.57;5.50;;;20.10;99.90;;;;;;5052676;28;20203;-78
2023/07/04 05:36:19;;;;;;;12.03;5.30;;;20.10;99.90;;;;;;5053981;28;20211;-79
2023/07/04 05:38:48;;;;;;;14.30;5.23;;;20.20;99.90;;;;;;5052362;28;20191;-78
2023/07/04 05:41:16;;;;;;;12.70;5.43;;;20.20;99.90;;;;;;5052358;28;20222;-79
2023/07/04 05:43:44;;;;;;;14.50;5.57;;;20.20;99.90;;;;;;5052108;28;20290;-78
2023/07/04 05:46:12;;;;;;;19.13;5.77;;;20.20;99.90;;;;;;5035189;28;20222;-77
2023/07/04 05:48:39;;;;;;;13.23;5.17;;;20.30;99.90;;;;;;5052318;28;20241;-77
2023/07/04 05:51:09;;;;;;;15.40;4.87;;;20.30;99.90;;;;;;5053287;28;20207;-76
2023/07/04 05:53:38;;;;;;;10.70;4.67;;;20.40;99.90;;;;;;5053489;28;20207;-76
2023/07/04 05:56:12;;;;;;;10.23;4.40;;;20.40;99.90;;;;;;5053221;28;20203;-76
2023/07/04 05:58:41;;;;;;;13.87;4.70;;;20.50;99.90;;;;;;5051796;28;20195;-78
2023/07/04 06:01:09;;;;;;;11.03;4.30;;;20.60;99.50;;;;;;5051859;28;20218;-78
2023/07/04 06:03:37;;;;;;;11.77;4.50;;;20.70;98.60;;;;;;5051786;28;20197;-78
2023/07/04 06:06:17;;;;;;;11.17;4.17;;;20.80;97.60;;;;;;5051691;28;20226;-78
2023/07/04 06:08:45;;;;;;;11.03;4.50;;;20.80;97.10;;;;;;5051721;28;20681;-77
2023/07/04 06:11:11;;;;;;;11.57;4.37;;;21.00;96.50;;;;;;5051609;28;20227;-77
2023/07/04 06:13:39;;;;;;;13.43;4.03;;;21.10;96.00;;;;;;5051779;28;20686;-76
2023/07/04 06:16:06;;;;;;;8.83;4.20;;;21.20;96.00;;;;;;5052697;28;20206;-77
2023/07/04 06:18:34;;;;;;;8.07;3.80;;;21.40;94.80;;;;;;5051677;28;20659;-79
2023/07/04 06:21:21;;;;;;;10.53;4.20;;;21.40;94.30;;;;;;5051598;28;20619;-78
2023/07/04 06:24:04;;;;;;;13.27;3.83;;;21.40;94.40;;;;;;5051769;28;20198;-78
2023/07/04 06:26:32;;;;;;;9.03;4.30;;;21.30;94.00;;;;;;5034785;28;20223;-76
2023/07/04 06:29:00;;;;;;;12.37;3.93;;;21.40;94.20;;;;;;5051131;28;20195;-83
2023/07/04 06:31:27;;;;;;;9.50;3.90;;;21.40;94.10;;;;;;5051187;28;20687;-81
2023/07/04 06:33:55;;;;;;;7.77;3.90;;;21.60;94.50;;;;;;5052830;28;20218;-81
2023/07/04 06:36:23;;;;;;;12.63;3.83;;;21.80;94.40;;;;;;5051389;28;20218;-82
2023/07/04 06:38:50;;;;;;;10.90;4.37;;;21.80;93.80;;;;;;5034616;28;20199;-81
2023/07/04 06:41:18;;;;;;;10.73;3.50;;;21.80;93.40;;;;;;5051314;28;20218;-81
2023/07/04 06:43:46;;;;;;;10.83;3.73;;;21.90;92.90;;;;;;5051456;28;20218;-81
2023/07/04 06:46:19;;;;;;;10.73;3.87;;;22.10;92.70;;;;;;5052571;28;20310;-81
2023/07/04 06:48:49;;;;;;;10.73;3.80;;;22.10;92.60;;;;;;5052736;28;20202;-81
2023/07/04 06:51:18;;;;;;;6.83;3.40;;;22.10;92.50;;;;;;5052393;28;20214;-82
2023/07/04 06:53:45;;;;;;;7.63;3.73;;;22.20;91.90;;;;;;5051053;28;20309;-80
2023/07/04 06:56:20;;;;;;;12.80;4.37;;;22.20;91.80;;;;;;5052233;28;20665;-80
2023/07/04 06:58:49;;;;;;;9.40;3.70;;;22.30;92.00;;;;;;5050913;28;20213;-80
2023/07/04 07:01:18;;;;;;;10.10;3.90;;;22.40;91.00;;;;;;5050857;28;20663;-80
2023/07/04 07:03:45;;;;;;;11.00;3.67;;;22.50;91.20;;;;;;5034395;28;20570;-81
2023/07/04 07:06:13;;;;;;;10.17;3.43;;;22.50;90.40;;;;;;5034337;28;20720;-80
2023/07/04 07:08:40;;;;;;;9.03;3.80;;;22.50;90.90;;;;;;5052143;28;20191;-80
2023/07/04 07:11:10;;;;;;;12.40;3.97;;;22.70;91.00;;;;;;5050824;28;20241;-80
2023/07/04 07:13:38;;;;;;;10.70;3.73;;;22.80;89.80;;;;;;5051026;28;20222;-81
2023/07/04 07:16:09;;;;;;;14.07;4.20;;;22.90;88.50;;;;;;5050755;28;20249;-81
2023/07/04 07:18:37;;;;;;;9.30;3.60;;;23.00;89.70;;;;;;5034298;28;20229;-81
2023/07/04 07:21:06;;;;;;;9.80;4.07;;;23.00;85.20;;;;;;5050955;28;20309;-81
2023/07/04 07:23:35;;;;;;;11.50;3.83;;;22.90;84.90;;;;;;5034263;28;20249;-81
2023/07/04 07:26:05;;;;;;;9.10;3.60;;;23.00;85.80;;;;;;5050949;28;20223;-81
2023/07/04 07:28:38;;;;;;;11.60;4.03;;;23.00;86.70;;;;;;5050596;28;20199;-81
2023/07/04 07:31:09;;;;;;;11.37;4.00;;;23.20;86.40;;;;;;5034525;28;20226;-80
2023/07/04 07:33:39;;;;;;;11.33;4.03;;;23.30;84.80;;;;;;5051888;28;20768;-81
2023/07/04 07:36:14;;;;;;;9.93;3.95;;;23.30;85.20;;;;;;5051862;28;20551;-81
2023/07/04 07:38:42;;;;;;;9.30;3.90;;;23.40;84.80;;;;;;5050631;28;20191;-81
2023/07/04 07:41:09;;;;;;;10.63;4.17;;;23.40;82.90;;;;;;5050318;28;20227;-80
2023/07/04 07:43:40;;;;;;;10.57;4.00;;;23.40;83.40;;;;;;5051676;28;20190;-80
2023/07/04 07:46:11;;;;;;;8.63;4.10;;;23.50;82.20;;;;;;5050247;28;20268;-81
2023/07/04 07:48:38;;;;;;;12.50;4.80;;;23.60;81.50;;;;;;5033888;28;20226;-81
2023/07/04 07:51:08;;;;;;;7.57;4.03;;;23.60;81.10;;;;;;5052118;28;20613;-82
2023/07/04 07:53:36;;;;;;;8.53;3.93;;;23.70;80.80;;;;;;5054409;28;20578;-80
2023/07/04 07:56:04;;;;;;;8.48;3.60;;;23.50;81.20;;;;;;5037750;28;20223;-79
2023/07/04 07:58:32;;;;;;;10.45;4.03;;;23.70;82.80;;;;;;5054250;28;20194;-79
2023/07/04 08:01:00;;;;;;;13.67;4.43;;;23.70;80.60;;;;;;5053897;28;20764;-80
2023/07/04 08:03:27;;;;;;;12.10;4.53;;;23.80;80.90;;;;;;5037616;28;20226;-80
2023/07/04 08:05:54;;;;;;;22.45;5.07;;;23.80;79.60;;;;;;5053812;28;20331;-79
2023/07/04 08:08:21;;;;;;;9.85;3.80;;;23.60;80.00;;;;;;5054096;28;20225;-78
2023/07/04 08:10:48;;;;;;;8.97;3.80;;;23.60;80.20;;;;;;5055054;28;20203;-81
2023/07/04 08:13:15;;;;;;;9.10;3.77;;;23.60;79.60;;;;;;5053721;28;20309;-80
2023/07/04 08:15:42;;;;;;;7.87;3.40;;;23.60;79.90;;;;;;5054018;28;20206;-80
2023/07/04 08:18:10;;;;;;;10.47;3.80;;;23.70;79.60;;;;;;5054171;28;20194;-80
2023/07/04 08:20:37;;;;;;;9.63;3.77;;;23.90;79.20;;;;;;5037313;28;20211;-81
2023/07/04 08:23:04;;;;;;;7.93;3.53;;;24.00;79.20;;;;;;5053689;28;20297;-81
2023/07/04 08:25:36;;;;;;;8.07;3.67;;;24.10;78.70;;;;;;5037271;28;20306;-80
2023/07/04 08:28:03;;;;;;;8.33;3.67;;;24.50;78.70;;;;;;5053641;28;20191;-80
2023/07/04 08:30:30;;;;;;;6.43;3.47;;;25.10;76.00;;;;;;5053480;28;20254;-82
2023/07/04 08:32:57;;;;;;;9.82;3.80;;;25.40;74.30;;;;;;5053673;28;20285;-82
2023/07/04 08:35:24;;;;;;;8.55;3.20;;;25.90;72.90;;;;;;5037282;28;20215;-82
2023/07/04 08:37:51;;;;;;;7.85;3.10;;;26.20;72.10;;;;;;5054765;28;20620;-80
2023/07/04 08:40:18;;;;;;;7.22;3.65;;;26.80;70.00;;;;;;5053362;28;20207;-81
2023/07/04 08:42:46;;;;;;;7.57;3.50;;;27.10;69.00;;;;;;5053419;28;20191;-82
2023/07/04 08:45:24;;;;;;;7.13;3.33;;;27.00;69.50;;;;;;5053400;28;20217;-82
2023/07/04 08:47:54;;;;;;;8.85;3.00;;;27.20;67.40;;;;;;5053259;28;20230;-81
2023/07/04 08:50:29;;;;;;;8.82;3.30;;;27.40;67.90;;;;;;5053152;28;20317;-82
2023/07/04 08:53:08;;;;;;;8.30;3.42;;;27.50;66.60;;;;;;5053248;28;20204;-82
2023/07/04 08:55:45;;;;;;;8.75;3.25;;;27.70;66.80;;;;;;5036691;28;20207;-82
2023/07/04 08:58:17;;;;;;;9.63;3.65;;;27.60;66.60;;;;;;5054281;28;20178;-80
2023/07/04 09:00:45;;;;;;;7.60;3.38;;;27.70;67.20;;;;;;5053144;28;20272;-82
2023/07/04 09:03:26;;;;;;;8.00;3.33;;;27.70;66.20;;;;;;5052758;28;20205;-82
2023/07/04 09:06:10;;;;;;;12.73;3.50;;;27.60;66.90;;;;;;5052829;28;20698;-82
2023/07/04 09:09:03;;;;;;;7.22;3.10;;;27.90;67.00;;;;;;5052867;28;20223;-84
2023/07/04 09:11:31;;;;;;;7.47;3.65;;;27.60;66.40;;;;;;5036624;28;20313;-81
2023/07/04 09:14:05;;;;;;;9.25;3.70;;;28.10;67.30;;;;;;5036260;28;20272;-82
2023/07/04 09:16:39;;;;;;;16.38;3.58;;;28.50;65.90;;;;;;5052708;28;20766;-81
2023/07/04 09:19:10;;;;;;;9.48;3.63;;;28.70;64.30;;;;;;5036268;28;20285;-82
2023/07/04 09:21:37;;;;;;;8.13;3.80;;;28.90;65.10;;;;;;5052876;28;20284;-81
2023/07/04 09:24:05;;;;;;;7.82;3.70;;;28.90;63.90;;;;;;5036152;28;20234;-82
2023/07/04 09:26:56;;;;;;;5.80;3.40;;;29.10;64.20;;;;;;5052468;28;20222;-80
2023/07/04 09:29:24;;;;;;;11.18;3.60;;;28.60;64.00;;;;;;5052610;28;20206;-81
2023/07/04 09:31:54;;;;;;;11.27;3.55;;;28.20;64.70;;;;;;5052405;28;20254;-81
2023/07/04 09:34:44;;;;;;;8.77;3.40;;;28.40;65.50;;;;;;5036019;28;20254;-83
2023/07/04 09:37:14;;;;;;;6.32;3.20;;;28.80;66.50;;;;;;5053563;28;20214;-80
2023/07/04 09:39:55;;;;;;;8.63;3.25;;;29.20;64.80;;;;;;5052373;28;20281;-82
2023/07/04 09:42:43;;;;;;;5.57;3.17;;;29.50;64.00;;;;;;5052385;28;20187;-82
2023/07/04 09:45:21;;;;;;;9.15;3.80;;;29.60;63.60;;;;;;5052555;28;20571;-80
2023/07/04 09:47:48;;;;;;;9.32;3.55;;;29.70;62.30;;;;;;5052082;28;20236;-82
2023/07/04 09:50:28;;;;;;;10.18;3.40;;;29.50;63.10;;;;;;5053280;28;20242;-81
2023/07/04 09:53:18;;;;;;;6.93;3.38;;;29.40;62.90;;;;;;5035559;28;20226;-81
2023/07/04 09:55:58;;;;;;;6.93;3.55;;;29.40;63.90;;;;;;5051971;28;20313;-81
2023/07/04 09:58:26;;;;;;;6.90;3.63;;;29.50;62.50;;;;;;5052043;28;20655;-81
2023/07/04 10:01:22;;;;;;;8.95;3.70;;;29.70;62.80;;;;;;5051883;28;20231;-83
2023/07/04 10:03:49;;;;;;;6.25;3.38;;;30.00;61.40;;;;;;5030697;28;20814;-82
2023/07/04 10:06:33;;;;;;;9.60;3.70;;;30.00;62.10;;;;;;5030845;28;20309;-82
2023/07/04 10:09:05;;;;;;;6.82;3.97;;;30.20;60.90;;;;;;5014346;28;20203;-83
2023/07/04 10:11:37;;;;;;;7.28;3.80;;;30.50;60.10;;;;;;5030921;28;20225;-81
2023/07/04 10:14:09;;;;;;;7.63;4.28;;;30.00;59.70;;;;;;4997398;28;20223;-80
2023/07/04 10:16:53;;;;;;;9.13;3.97;;;29.90;60.10;;;;;;5030504;28;20239;-81
2023/07/04 10:19:22;;;;;;;10.27;4.07;;;29.70;59.70;;;;;;5014040;28;20278;-82
2023/07/04 10:21:53;;;;;;;9.93;4.20;;;29.30;61.50;;;;;;5013974;28;20269;-82
2023/07/04 10:24:23;;;;;;;8.40;3.92;;;29.40;61.30;;;;;;5030525;28;20323;-81
2023/07/04 10:26:57;;;;;;;7.18;4.22;;;29.50;60.70;;;;;;4998106;28;20293;-79
2023/07/04 10:29:39;;;;;;;9.25;4.47;;;29.50;60.30;;;;;;5013928;28;20223;-81
2023/07/04 10:32:13;;;;;;;10.88;4.75;;;29.80;61.10;;;;;;5013847;28;20581;-81
2023/07/04 10:34:42;;;;;;;10.20;4.40;;;29.80;59.60;;;;;;4997778;28;20219;-81
2023/07/04 10:37:19;;;;;;;8.65;4.15;;;30.10;60.30;;;;;;5030355;28;20251;-80
2023/07/04 10:39:46;;;;;;;9.00;3.75;;;30.40;59.30;;;;;;5005978;28;20217;-78
2023/07/04 10:42:20;;;;;;;8.98;4.10;;;30.90;59.00;;;;;;5051030;28;20770;-80
2023/07/04 10:44:52;;;;;;;8.75;4.15;;;30.40;58.90;;;;;;5052794;28;20245;-80
2023/07/04 10:47:27;;;;;;;8.48;4.10;;;30.00;60.30;;;;;;5051055;28;20679;-80
2023/07/04 10:50:01;;;;;;;8.95;4.40;;;30.80;60.80;;;;;;5051226;28;20669;-79
2023/07/04 10:52:32;;;;;;;10.98;4.43;;;30.80;57.90;;;;;;5051220;28;20203;-79
2023/07/04 10:55:00;;;;;;;10.45;4.60;;;29.70;58.80;;;;;;5034591;28;20221;-80
2023/07/04 10:57:57;;;;;;;9.52;4.78;;;29.90;59.80;;;;;;5034674;28;20234;-80
2023/07/04 11:00:41;;;;;;;6.93;4.07;;;30.30;59.30;;;;;;5051139;28;20265;-78
2023/07/04 11:03:17;;;;;;;13.00;4.72;;;30.20;59.40;;;;;;5051415;28;20191;-79
2023/07/04 11:05:49;;;;;;;8.48;4.57;;;30.30;58.90;;;;;;5051379;28;20268;-80
2023/07/04 11:08:18;;;;;;;11.48;5.00;;;30.60;59.20;;;;;;5051200;28;20649;-78
2023/07/04 11:10:56;;;;;;;13.48;4.75;;;31.20;58.60;;;;;;5051161;28;20223;-79
2023/07/04 11:13:26;;;;;;;9.10;4.82;;;30.90;58.70;;;;;;5051086;28;20301;-81
2023/07/04 11:16:05;;;;;;;12.48;4.93;;;31.60;57.10;;;;;;5052319;28;20206;-80
2023/07/04 11:18:39;;;;;;;9.23;4.55;;;31.70;56.50;;;;;;5051177;28;20389;-83
2023/07/04 11:21:16;;;;;;;10.82;5.28;;;32.00;56.80;;;;;;5050850;28;20264;-81
2023/07/04 11:23:47;;;;;;;9.75;4.97;;;31.00;56.20;;;;;;5051076;28;20685;-79
2023/07/04 11:26:16;;;;;;;10.40;5.00;;;30.90;56.30;;;;;;5056342;28;20745;-79
2023/07/04 11:28:47;;;;;;;9.70;5.18;;;30.20;57.00;;;;;;5038363;28;20620;-79
2023/07/04 11:31:25;;;;;;;11.35;5.68;;;30.30;57.20;;;;;;5054809;28;20752;-82
2023/07/04 11:33:52;;;;;;;10.60;5.10;;;31.20;57.30;;;;;;5055166;28;20257;-78
2023/07/04 11:36:49;;;;;;;9.57;4.93;;;31.60;56.80;;;;;;5056546;28;20221;-81
2023/07/04 11:39:29;;;;;;;8.55;5.38;;;31.70;55.80;;;;;;5016906;28;20195;-80
2023/07/04 11:41:57;;;;;;;15.93;5.22;;;31.90;55.30;;;;;;5016603;28;20742;-81
2023/07/04 11:44:30;;;;;;;11.00;4.90;;;32.80;54.60;;;;;;5017097;28;20738;-80
2023/07/04 11:47:10;;;;;;;11.10;5.75;;;32.20;54.50;;;;;;5016566;28;20263;-83
2023/07/04 11:49:37;;;;;;;10.55;5.40;;;32.40;53.10;;;;;;5033328;28;20195;-81
2023/07/04 11:52:25;;;;;;;8.98;5.45;;;32.30;53.30;;;;;;5016620;28;20250;-81
2023/07/04 11:55:07;;;;;;;12.30;5.40;;;32.40;53.50;;;;;;5032921;28;20798;-82
2023/07/04 11:57:55;;;;;;;10.20;4.95;;;32.70;53.90;;;;;;5033052;28;20714;-79
2023/07/04 12:00:38;;;;;;;10.48;4.93;;;32.90;53.00;;;;;;5016301;28;20363;-80
2023/07/04 12:03:16;;;;;;;11.07;5.05;;;32.00;53.60;;;;;;5000062;28;20218;-80
2023/07/04 12:05:54;;;;;;;10.68;5.53;;;32.60;54.00;;;;;;5016164;28;20589;-79
2023/07/04 12:08:50;;;;;;;10.93;5.78;;;33.20;52.30;;;;;;5016315;28;20213;-81
2023/07/04 12:11:21;;;;;;;11.48;5.65;;;32.20;51.50;;;;;;5016094;28;20595;-81
2023/07/04 12:13:49;;;;;;;12.18;5.68;;;32.40;52.00;;;;;;5032410;28;20192;-82
2023/07/04 12:16:22;;;;;;;12.00;5.47;;;31.50;52.90;;;;;;5019372;28;20219;-81
2023/07/04 12:18:49;;;;;;;13.73;5.85;;;31.30;53.00;;;;;;5053840;28;20191;-82
2023/07/04 12:21:18;;;;;;;9.93;5.75;;;31.80;53.60;;;;;;5036899;28;20591;-81
2023/07/04 12:23:46;;;;;;;9.27;5.68;;;32.10;53.70;;;;;;5053265;28;20601;-80
2023/07/04 12:26:18;;;;;;;11.55;6.00;;;32.30;52.30;;;;;;5053205;28;20223;-81
2023/07/04 12:28:47;;;;;;;10.35;5.55;;;32.40;51.30;;;;;;5053315;28;20709;-81
2023/07/04 12:31:15;;;;;;;10.95;5.28;;;32.40;51.80;;;;;;5053130;28;20233;-79
2023/07/04 12:33:45;;;;;;;9.77;5.70;;;32.20;52.30;;;;;;5037388;28;20183;-79
2023/07/04 12:36:15;;;;;;;11.25;5.85;;;32.10;52.00;;;;;;5036157;28;20225;-81
2023/07/04 12:38:48;;;;;;;9.13;5.32;;;32.60;51.80;;;;;;5053430;28;20673;-81
2023/07/04 12:41:22;;;;;;;11.07;6.05;;;33.10;50.70;;;;;;5054407;28;20218;-81
2023/07/04 12:43:59;;;;;;;12.20;5.97;;;33.40;51.10;;;;;;5053323;28;20183;-81
2023/07/04 12:46:31;;;;;;;9.88;6.32;;;34.20;50.50;;;;;;5052823;28;20253;-81
2023/07/04 12:49:01;;;;;;;12.20;6.68;;;34.20;48.70;;;;;;5054446;28;20186;-82
2023/07/04 12:51:32;;;;;;;12.05;6.78;;;32.50;49.50;;;;;;5053095;28;20250;-82
2023/07/04 12:54:02;;;;;;;10.75;6.45;;;32.60;50.00;;;;;;5052991;28;20304;-83
2023/07/04 12:56:30;;;;;;;15.38;6.60;;;32.70;50.80;;;;;;5052972;28;20215;-82
2023/07/04 12:58:57;;;;;;;10.45;6.10;;;33.20;50.40;;;;;;5053003;28;20225;-81